Time;durP1;ratioP1;P1;durP2;ratioP2;P2;SDS_P1;SDS_P2;PMS_P1;PMS_P2;Temp;Humidity;BMP_temperature;BMP_pressure;BME280_temperature;BME280_humidity;BME280_pressure;Samples;Min_cycle;Max_cycle;Signal;HPM_P1;HPM_P2
2023/02/28 00:01:37;;;;;;;2.60;1.93;;;-0.60;53.00;;;2.84;37.28;98279.19;5073175;28;20388;-40
2023/02/28 00:04:04;;;;;;;3.00;2.20;;;-0.50;52.80;;;2.79;37.21;98279.44;5072698;28;20389;-41
2023/02/28 00:06:32;;;;;;;2.93;2.27;;;-0.60;52.40;;;2.78;37.54;98271.69;5037806;28;20040;-40
2023/02/28 00:08:59;;;;;;;4.30;2.33;;;-0.60;53.20;;;2.78;37.65;98275.16;5072785;28;20044;-41
2023/02/28 00:11:27;;;;;;;3.40;2.23;;;-0.60;53.60;;;2.78;37.56;98280.41;5072537;28;20411;-40
2023/02/28 00:13:55;;;;;;;3.20;2.00;;;-0.70;53.90;;;2.75;37.71;98275.31;5053790;28;20049;-40
2023/02/28 00:16:22;;;;;;;4.30;2.50;;;-0.70;54.30;;;2.74;38.03;98278.91;5072384;28;20043;-41
2023/02/28 00:18:50;;;;;;;2.97;2.20;;;-0.80;54.80;;;2.73;37.94;98270.19;5072542;28;20032;-40
2023/02/28 00:21:19;;;;;;;3.20;2.50;;;-0.80;54.80;;;2.72;38.27;98265.84;5054775;28;20060;-40
2023/02/28 00:23:48;;;;;;;6.13;2.33;;;-0.80;55.10;;;2.70;37.95;98272.16;5072722;28;20051;-40
2023/02/28 00:26:16;;;;;;;4.67;2.70;;;-0.80;55.70;;;2.67;38.08;98270.56;5071845;28;20067;-40
2023/02/28 00:28:45;;;;;;;3.87;2.77;;;-0.80;55.90;;;2.69;38.62;98267.84;5072601;28;20037;-41
2023/02/28 00:31:13;;;;;;;3.70;2.80;;;-0.80;56.20;;;2.69;38.42;98273.94;5071073;28;20087;-40
2023/02/28 00:33:41;;;;;;;4.87;2.57;;;-0.80;56.60;;;2.69;38.42;98267.84;5054782;28;20048;-41
2023/02/28 00:36:11;;;;;;;5.30;3.10;;;-0.80;56.70;;;2.69;38.41;98270.47;5052578;28;20048;-41
2023/02/28 00:38:40;;;;;;;4.70;2.73;;;-0.80;56.80;;;2.70;38.64;98266.91;5072448;28;20052;-40
2023/02/28 00:41:08;;;;;;;4.73;2.77;;;-0.80;57.00;;;2.67;38.60;98262.66;5053381;28;20048;-41
2023/02/28 00:43:38;;;;;;;6.67;3.07;;;-0.80;56.80;;;2.68;38.90;98263.53;5072398;28;20040;-41
2023/02/28 00:46:07;;;;;;;4.67;2.50;;;-0.80;56.80;;;2.64;39.11;98260.25;5071554;28;20496;-41
2023/02/28 00:48:35;;;;;;;5.97;3.07;;;-0.90;57.60;;;2.63;38.94;98269.06;5070084;28;20045;-41
2023/02/28 00:51:03;;;;;;;5.37;3.03;;;-0.90;57.70;;;2.61;38.97;98272.75;5053133;28;20060;-41
2023/02/28 00:53:32;;;;;;;4.67;3.00;;;-0.90;57.90;;;2.57;38.97;98269.44;5054363;28;20051;-41
2023/02/28 00:56:00;;;;;;;5.30;2.97;;;-1.00;58.00;;;2.55;39.19;98264.28;5053496;28;20047;-41
2023/02/28 00:58:28;;;;;;;6.67;3.60;;;-1.00;58.20;;;2.54;39.12;98265.25;5072053;28;20518;-41
2023/02/28 01:00:56;;;;;;;7.10;3.90;;;-1.00;58.30;;;2.54;39.03;98259.16;5053803;28;20511;-41
2023/02/28 01:03:24;;;;;;;6.30;3.27;;;-1.00;58.60;;;2.54;39.25;98253.88;5045877;28;20408;-41
2023/02/28 01:05:52;;;;;;;6.80;3.47;;;-1.00;58.70;;;2.54;39.54;98259.16;5071251;28;20037;-41
2023/02/28 01:08:21;;;;;;;5.30;3.47;;;-1.00;59.00;;;2.51;39.58;98267.22;5071779;28;20044;-41
2023/02/28 01:10:50;;;;;;;7.90;3.70;;;-1.00;59.30;;;2.49;39.61;98262.03;5071723;28;20040;-41
2023/02/28 01:13:19;;;;;;;6.07;3.20;;;-1.10;59.50;;;2.47;39.57;98260.47;5071468;28;20045;-41
2023/02/28 01:15:51;;;;;;;5.30;3.77;;;-1.10;59.70;;;2.42;39.81;98255.47;5053554;28;20496;-41
2023/02/28 01:18:21;;;;;;;5.07;3.50;;;-1.20;60.10;;;2.42;39.64;98259.88;5053342;28;20049;-40
2023/02/28 01:20:49;;;;;;;6.37;3.60;;;-1.20;60.30;;;2.40;39.79;98256.50;5053391;28;20051;-41
2023/02/28 01:23:16;;;;;;;7.17;3.60;;;-1.10;60.60;;;2.40;40.01;98259.97;5037200;28;20040;-40
2023/02/28 01:25:44;;;;;;;5.47;3.63;;;-1.10;60.90;;;2.38;39.95;98263.66;5052947;28;20052;-41
2023/02/28 01:28:12;;;;;;;7.30;3.97;;;-1.20;60.40;;;2.38;40.14;98253.13;5071294;28;20044;-42
2023/02/28 01:30:39;;;;;;;5.33;3.50;;;-1.10;61.00;;;2.40;39.85;98253.88;5053076;28;20562;-41
2023/02/28 01:33:07;;;;;;;6.53;4.33;;;-1.10;60.60;;;2.39;40.39;98260.09;5053009;28;20048;-41
2023/02/28 01:35:35;;;;;;;7.87;4.33;;;-1.10;60.70;;;2.36;40.60;98256.72;5052543;28;20045;-41
2023/02/28 01:38:03;;;;;;;10.03;4.93;;;-1.10;61.00;;;2.38;40.29;98258.41;5060747;28;20063;-41
2023/02/28 01:40:47;;;;;;;8.10;4.45;;;-1.10;61.00;;;2.36;40.44;98259.34;5071346;28;20088;-41
2023/02/28 01:43:26;;;;;;;9.97;4.90;;;-1.10;60.70;;;2.34;40.41;98260.34;5071033;28;20055;-42
2023/02/28 01:45:57;;;;;;;10.60;5.07;;;-1.10;61.30;;;2.34;40.42;98258.56;5060443;28;20044;-41
2023/02/28 01:48:32;;;;;;;10.20;4.77;;;-1.10;60.90;;;2.33;40.25;98259.53;5069395;28;20051;-42
2023/02/28 01:51:10;;;;;;;9.80;4.80;;;-1.20;61.50;;;2.31;40.31;98257.94;5036443;28;20048;-42
2023/02/28 01:53:47;;;;;;;10.03;5.77;;;-1.20;61.60;;;2.28;40.93;98255.50;5030179;28;20048;-42
2023/02/28 01:56:22;;;;;;;11.40;5.30;;;-1.20;61.90;;;2.28;40.69;98248.44;5034655;28;20044;-41
2023/02/28 01:58:52;;;;;;;10.17;5.57;;;-1.20;62.40;;;2.29;40.79;98252.78;5036616;28;20051;-40
2023/02/28 02:01:22;;;;;;;9.47;4.83;;;-1.20;62.60;;;2.30;40.74;98258.88;5053408;28;20432;-41
2023/02/28 02:04:01;;;;;;;9.73;5.57;;;-1.20;62.20;;;2.27;40.51;98248.53;5036525;28;20037;-41
2023/02/28 02:06:37;;;;;;;11.50;6.63;;;-1.20;62.20;;;2.26;41.07;98249.50;5053154;28;20401;-42
2023/02/28 02:09:07;;;;;;;13.80;7.03;;;-1.20;62.80;;;2.27;40.68;98243.28;5053945;28;20036;-41
2023/02/28 02:11:36;;;;;;;17.53;9.00;;;-1.20;63.10;;;2.28;41.32;98244.97;5070957;28;20044;-40
2023/02/28 02:14:45;;;;;;;15.13;8.30;;;-1.20;62.80;;;2.22;41.40;98238.31;5038253;28;20049;-41
2023/02/28 02:17:35;;;;;;;24.43;10.53;;;-1.20;64.10;;;2.23;40.90;98231.28;5031334;28;20416;-43
2023/02/28 02:20:54;;;;;;;21.00;10.03;;;-1.20;63.90;;;2.18;41.33;98231.56;5052035;28;20431;-43
2023/02/28 02:23:40;;;;;;;20.33;9.97;;;-1.20;63.90;;;2.19;41.20;98233.28;5059134;28;20048;-41
2023/02/28 02:26:40;;;;;;;20.43;9.00;;;-1.20;63.20;;;2.13;41.41;98226.59;5070361;28;20522;-43
2023/02/28 02:29:55;;;;;;;23.53;11.23;;;-1.20;63.80;;;2.12;41.32;98227.53;5070682;28;20083;-41
2023/02/28 02:33:05;;;;;;;14.80;6.90;;;-1.20;63.60;;;2.11;41.33;98230.25;5070596;28;20534;-41
2023/02/28 02:36:03;;;;;;;10.67;5.93;;;-1.20;64.30;;;2.17;41.71;98230.72;5036480;28;20048;-41
2023/02/28 02:38:59;;;;;;;9.33;5.97;;;-1.20;63.80;;;2.17;41.71;98222.84;5044711;28;20522;-41
2023/02/28 02:41:41;;;;;;;12.53;6.40;;;-1.10;64.90;;;2.20;41.67;98223.59;5052078;28;20115;-41
2023/02/28 02:44:14;;;;;;;12.67;6.47;;;-1.10;64.50;;;2.23;41.68;98224.25;5036922;28;20055;-41
2023/02/28 02:46:44;;;;;;;14.73;7.73;;;-1.20;64.40;;;2.23;41.71;98226.00;5035406;28;20056;-41
2023/02/28 02:49:24;;;;;;;12.73;6.90;;;-1.10;64.00;;;2.21;41.71;98223.50;5052352;28;20045;-41
2023/02/28 02:51:55;;;;;;;17.57;8.37;;;-1.10;64.50;;;2.29;42.09;98229.13;5053093;28;20044;-41
2023/02/28 02:54:32;;;;;;;11.73;7.23;;;-1.00;64.00;;;2.30;42.52;98227.34;5051479;28;20492;-41
2023/02/28 02:57:08;;;;;;;16.50;6.90;;;-1.00;64.80;;;2.29;42.21;98223.88;5068905;28;20049;-40
2023/02/28 02:59:38;;;;;;;15.87;8.53;;;-1.00;64.40;;;2.35;42.09;98228.75;5045438;28;20044;-41
2023/02/28 03:02:12;;;;;;;16.97;8.10;;;-1.00;64.50;;;2.36;42.68;98221.69;5036422;28;20049;-41
2023/02/28 03:04:48;;;;;;;12.90;7.28;;;-1.00;64.80;;;2.34;42.63;98224.41;5031679;28;20047;-41
2023/02/28 03:07:16;;;;;;;14.57;7.27;;;-1.00;64.90;;;2.36;42.71;98221.69;5039955;28;20052;-41
2023/02/28 03:09:58;;;;;;;10.70;6.10;;;-1.00;65.00;;;2.32;42.11;98222.81;5072317;28;20067;-42
2023/02/28 03:12:54;;;;;;;13.73;7.33;;;-0.90;65.70;;;2.31;42.26;98229.88;5074370;28;20408;-43
2023/02/28 03:15:59;;;;;;;11.77;7.37;;;-0.90;65.20;;;2.36;42.64;98233.06;5039588;28;20049;-41
2023/02/28 03:18:50;;;;;;;12.90;6.57;;;-1.00;66.20;;;2.45;42.77;98230.81;5052172;28;20068;-41
2023/02/28 03:22:17;;;;;;;11.47;6.40;;;-1.00;65.90;;;2.41;42.77;98227.50;5056030;28;20052;-41
2023/02/28 03:25:36;;;;;;;15.00;7.03;;;-1.00;67.00;;;2.44;42.47;98222.03;5033099;28;20049;-41
2023/02/28 03:28:29;;;;;;;8.30;4.93;;;-0.90;67.00;;;2.53;42.80;98231.16;5026205;28;20057;-42
2023/02/28 03:31:19;;;;;;;6.90;4.87;;;-0.90;65.90;;;2.53;42.66;98225.91;5068578;28;20044;-41
2023/02/28 03:34:27;;;;;;;10.03;5.23;;;-0.90;66.10;;;2.48;42.44;98228.81;5051189;28;20048;-41
2023/02/28 03:37:01;;;;;;;12.07;4.50;;;-0.90;67.00;;;2.61;43.01;98231.50;5050098;28;20060;-41
2023/02/28 03:39:39;;;;;;;8.63;5.37;;;-0.90;67.10;;;2.62;42.77;98221.84;5055785;28;20480;-41
2023/02/28 03:42:14;;;;;;;11.27;6.87;;;-0.90;66.40;;;2.64;43.09;98220.81;5056108;28;20040;-41
2023/02/28 03:44:49;;;;;;;8.10;4.60;;;-0.80;66.10;;;2.67;43.12;98222.38;5065915;28;20043;-41
2023/02/28 03:47:44;;;;;;;9.50;4.97;;;-0.80;66.20;;;2.63;43.02;98226.16;5056178;28;20045;-42
2023/02/28 03:50:19;;;;;;;;;;;-0.70;66.40;;;2.60;42.75;98221.94;5056123;28;20044;-43
2023/02/28 03:53:01;;;;;;;6.63;4.33;;;-0.70;67.00;;;2.73;42.56;98224.63;5055766;28;19921;-41
2023/02/28 03:55:38;;;;;;;11.40;5.17;;;-0.70;66.10;;;2.75;42.83;98218.34;5071920;28;20059;-41
2023/02/28 03:58:26;;;;;;;9.40;5.13;;;-0.70;65.70;;;2.73;42.72;98222.00;5056099;28;20496;-42
2023/02/28 04:01:11;;;;;;;11.80;5.30;;;-0.70;65.60;;;2.70;42.55;98219.59;5051320;28;20048;-43
2023/02/28 04:03:39;;;;;;;7.93;5.10;;;-0.60;65.10;;;2.77;42.72;98220.84;5047781;28;20040;-41
2023/02/28 04:06:17;;;;;;;6.43;5.10;;;-0.60;65.00;;;2.78;42.79;98224.34;5054944;28;20479;-41
2023/02/28 04:08:46;;;;;;;8.37;5.67;;;-0.60;65.30;;;2.80;42.67;98228.56;5048722;28;20052;-41
2023/02/28 04:11:42;;;;;;;10.90;5.90;;;-0.60;65.30;;;2.73;42.89;98224.63;5054857;28;20060;-41
2023/02/28 04:14:11;;;;;;;9.60;6.47;;;-0.60;65.10;;;2.78;43.24;98232.25;5072810;28;20048;-41
2023/02/28 04:16:41;;;;;;;12.17;6.50;;;-0.60;65.10;;;2.82;42.85;98231.09;5063847;28;20040;-43
2023/02/28 04:19:11;;;;;;;8.03;5.20;;;-0.50;65.50;;;2.85;43.17;98233.50;5046957;28;20044;-42
2023/02/28 04:21:45;;;;;;;8.17;5.27;;;-0.60;65.80;;;2.86;42.94;98235.22;5064726;28;20055;-42
2023/02/28 04:24:26;;;;;;;7.13;4.38;;;-0.60;65.60;;;2.88;43.10;98234.16;5072700;28;20107;-41
2023/02/28 04:26:56;;;;;;;7.50;4.40;;;-0.60;65.90;;;2.94;43.15;98230.28;5072627;28;20409;-42
2023/02/28 04:29:27;;;;;;;7.07;4.23;;;-0.60;65.60;;;2.96;43.08;98238.94;5072466;28;20081;-41
2023/02/28 04:31:59;;;;;;;6.93;3.77;;;-0.50;65.60;;;3.00;42.80;98234.31;5072588;28;20419;-41
2023/02/28 04:34:29;;;;;;;6.50;3.67;;;-0.40;65.20;;;3.01;43.49;98234.22;5072384;28;20053;-43
2023/02/28 04:36:57;;;;;;;5.27;3.93;;;-0.40;65.90;;;3.07;43.11;98235.63;5072082;28;20071;-41
2023/02/28 04:39:40;;;;;;;5.37;3.47;;;-0.40;66.10;;;3.07;43.22;98228.56;5064405;28;20041;-41
2023/02/28 04:42:09;;;;;;;5.63;3.63;;;-0.50;67.30;;;3.11;43.03;98230.03;5071983;28;20407;-41
2023/02/28 04:44:36;;;;;;;6.27;3.67;;;-0.50;66.60;;;3.16;43.49;98224.50;5071831;28;20040;-42
2023/02/28 04:47:04;;;;;;;8.80;4.43;;;-0.40;66.10;;;3.17;43.25;98225.34;5072064;28;20500;-41
2023/02/28 04:49:32;;;;;;;8.47;4.60;;;-0.40;66.10;;;3.16;43.30;98227.13;5070419;28;20036;-41
2023/02/28 04:51:59;;;;;;;5.97;3.53;;;-0.40;65.60;;;3.16;43.20;98221.88;5052886;28;20107;-42
2023/02/28 04:54:28;;;;;;;8.57;5.23;;;-0.40;66.10;;;3.15;43.38;98222.81;5071651;28;20052;-41
2023/02/28 04:56:55;;;;;;;7.40;4.47;;;-0.40;66.20;;;3.18;43.20;98224.38;5071864;28;20047;-41
2023/02/28 04:59:23;;;;;;;6.67;4.20;;;-0.30;66.10;;;3.18;43.19;98227.00;5071683;28;20055;-41
2023/02/28 05:01:50;;;;;;;5.73;4.07;;;-0.30;65.50;;;3.12;43.13;98225.63;5071901;28;20044;-40
2023/02/28 05:04:18;;;;;;;5.00;4.00;;;-0.30;65.60;;;3.12;43.54;98229.13;5071323;28;20071;-40
2023/02/28 05:06:46;;;;;;;6.70;4.00;;;-0.30;65.60;;;3.17;43.65;98236.69;5053073;28;20048;-41
2023/02/28 05:09:13;;;;;;;10.77;5.73;;;-0.30;66.30;;;3.22;43.38;98229.34;5053447;28;20051;-41
2023/02/28 05:11:41;;;;;;;10.27;6.23;;;-0.30;66.00;;;3.25;43.33;98239.66;5045885;28;20041;-41
2023/02/28 05:14:13;;;;;;;16.30;8.00;;;-0.30;66.10;;;3.30;43.42;98242.00;5036886;28;20052;-42
2023/02/28 05:16:41;;;;;;;9.73;5.87;;;-0.20;66.20;;;3.34;43.46;98236.44;5045568;28;20055;-41
2023/02/28 05:19:09;;;;;;;10.37;5.20;;;-0.20;65.90;;;3.36;43.33;98236.34;5070992;28;20051;-41
2023/02/28 05:21:40;;;;;;;7.87;5.23;;;-0.20;65.60;;;3.39;43.35;98230.03;5053622;28;20048;-41
2023/02/28 05:24:12;;;;;;;6.60;5.27;;;-0.20;65.40;;;3.40;43.16;98242.25;5054026;28;20047;-42
2023/02/28 05:26:42;;;;;;;6.97;5.50;;;-0.10;65.10;;;3.40;42.99;98236.97;5070835;28;20040;-42
2023/02/28 05:29:10;;;;;;;10.00;6.23;;;-0.10;65.20;;;3.43;43.04;98239.41;5053984;28;20052;-41
2023/02/28 05:31:38;;;;;;;8.50;5.67;;;-0.10;64.80;;;3.40;42.98;98229.91;5053472;28;20040;-41
2023/02/28 05:34:06;;;;;;;8.57;5.67;;;-0.10;64.60;;;3.42;43.20;98246.47;5071292;28;20106;-41
2023/02/28 05:36:33;;;;;;;10.67;6.17;;;-0.10;65.10;;;3.43;43.07;98240.25;5051845;28;20055;-41
2023/02/28 05:39:01;;;;;;;7.90;5.43;;;-0.10;64.00;;;3.42;43.03;98243.00;5071402;28;20056;-42
2023/02/28 05:41:29;;;;;;;8.50;5.37;;;-0.10;64.10;;;3.42;43.05;98241.19;5071198;28;20049;-42
2023/02/28 05:43:59;;;;;;;7.30;5.77;;;-0.10;64.40;;;3.43;42.97;98245.53;5071188;28;20495;-43
2023/02/28 05:46:27;;;;;;;7.23;5.00;;;-0.10;64.30;;;3.45;43.07;98237.50;5070435;28;20063;-41
2023/02/28 05:48:55;;;;;;;9.10;5.53;;;-0.10;64.10;;;3.45;42.88;98238.38;5071127;28;20739;-41
2023/02/28 05:51:23;;;;;;;6.50;4.73;;;-0.10;63.80;;;3.46;42.84;98242.66;5071019;28;20393;-42
2023/02/28 05:53:50;;;;;;;7.20;5.13;;;-0.10;63.60;;;3.51;43.09;98250.28;5070988;28;20511;-41
2023/02/28 05:56:18;;;;;;;8.10;4.33;;;0.00;63.80;;;3.52;42.81;98239.63;5069647;28;20040;-41
2023/02/28 05:58:46;;;;;;;8.27;5.10;;;0.00;63.80;;;3.54;42.80;98237.72;5070658;28;20491;-42
2023/02/28 06:01:41;;;;;;;8.67;4.27;;;0.00;63.70;;;3.47;43.01;98243.50;5070958;28;20492;-41
2023/02/28 06:04:10;;;;;;;6.43;4.00;;;0.00;63.80;;;3.52;42.78;98244.88;5064696;28;20056;-41
2023/02/28 06:06:57;;;;;;;10.73;4.43;;;-0.10;63.90;;;3.53;42.94;98245.75;5063898;28;20496;-40
2023/02/28 06:09:24;;;;;;;6.83;4.27;;;-0.10;63.90;;;3.52;42.81;98247.53;5070618;28;20049;-41
2023/02/28 06:11:52;;;;;;;7.53;4.30;;;0.00;63.30;;;3.51;43.00;98245.00;5052934;28;20037;-41
2023/02/28 06:14:20;;;;;;;6.03;4.07;;;0.00;63.50;;;3.54;42.71;98248.25;5070649;28;20055;-40
2023/02/28 06:16:48;;;;;;;6.30;4.53;;;-0.10;63.50;;;3.55;42.78;98255.22;5070506;28;20032;-41
2023/02/28 06:19:16;;;;;;;6.73;4.33;;;0.00;63.40;;;3.57;42.75;98251.63;5069588;28;20044;-43
2023/02/28 06:21:44;;;;;;;7.40;4.00;;;0.00;63.40;;;3.59;42.56;98257.63;5070538;28;20041;-41
2023/02/28 06:24:11;;;;;;;9.67;4.97;;;0.00;63.60;;;3.59;42.69;98250.59;5070728;28;20364;-41
2023/02/28 06:26:39;;;;;;;8.10;5.10;;;0.00;63.70;;;3.59;42.91;98249.75;5070201;28;20045;-41
2023/02/28 06:29:07;;;;;;;9.70;5.40;;;0.00;63.60;;;3.60;42.62;98257.53;5052553;28;20499;-41
2023/02/28 06:31:34;;;;;;;14.10;7.20;;;0.00;63.60;;;3.62;42.67;98254.81;5070382;28;20504;-41
2023/02/28 06:34:02;;;;;;;12.73;6.83;;;0.00;63.50;;;3.60;42.62;98256.72;5070513;28;20067;-41
2023/02/28 06:36:30;;;;;;;11.27;5.43;;;0.00;63.70;;;3.62;42.76;98262.72;5069928;28;20368;-43
2023/02/28 06:38:58;;;;;;;10.20;5.77;;;0.00;63.60;;;3.65;42.73;98270.41;5072457;28;20103;-44
2023/02/28 06:41:26;;;;;;;7.50;5.37;;;0.00;63.60;;;3.65;42.71;98263.34;5074297;28;20045;-41
2023/02/28 06:43:55;;;;;;;12.13;6.07;;;0.00;63.80;;;3.66;42.75;98269.47;5039833;28;20044;-41
2023/02/28 06:46:23;;;;;;;8.87;5.53;;;0.00;63.80;;;3.64;42.40;98280.09;5073818;28;20055;-41
2023/02/28 06:48:51;;;;;;;8.00;5.00;;;0.00;63.70;;;3.64;42.62;98272.19;5056564;28;20049;-41
2023/02/28 06:51:22;;;;;;;8.63;5.53;;;0.00;63.70;;;3.69;42.72;98282.44;5074132;28;20045;-43
2023/02/28 06:53:50;;;;;;;9.57;5.13;;;0.00;63.90;;;3.69;42.42;98279.81;5066445;28;20321;-42
2023/02/28 06:56:20;;;;;;;11.57;5.67;;;0.00;64.10;;;3.69;42.71;98282.44;5072585;28;20412;-42
2023/02/28 06:58:50;;;;;;;9.27;5.73;;;0.00;63.90;;;3.72;42.79;98288.34;5048148;28;20041;-42
2023/02/28 07:01:19;;;;;;;11.30;5.23;;;0.00;63.60;;;3.73;42.44;98281.28;5073856;28;20045;-42
2023/02/28 07:03:51;;;;;;;11.40;5.70;;;0.10;63.40;;;3.73;42.75;98283.91;5055990;28;20056;-41
2023/02/28 07:06:23;;;;;;;8.57;5.10;;;0.10;63.30;;;3.73;42.43;98286.53;5072709;28;20052;-42
2023/02/28 07:08:52;;;;;;;8.23;4.90;;;0.10;62.80;;;3.73;42.48;98289.19;5048200;28;20542;-42
2023/02/28 07:11:22;;;;;;;7.87;5.07;;;0.20;62.70;;;3.75;42.67;98293.38;5055983;28;20052;-41
2023/02/28 07:13:50;;;;;;;7.43;4.87;;;0.30;62.70;;;3.78;42.62;98295.00;5048307;28;20036;-41
2023/02/28 07:16:18;;;;;;;9.73;5.80;;;0.20;62.80;;;3.79;42.68;98296.66;5072974;28;20055;-42
2023/02/28 07:18:46;;;;;;;10.40;4.53;;;0.20;63.80;;;3.82;42.39;98296.47;5073406;28;20044;-41
2023/02/28 07:21:14;;;;;;;10.43;5.67;;;0.10;63.10;;;3.86;42.52;98294.47;5073435;28;20040;-40
2023/02/28 07:23:42;;;;;;;8.40;5.60;;;0.20;62.70;;;3.82;42.38;98299.09;5073401;28;20045;-41
2023/02/28 07:26:15;;;;;;;8.70;5.43;;;0.20;62.70;;;3.84;42.58;98291.94;5073133;28;20044;-41
2023/02/28 07:28:44;;;;;;;10.47;5.97;;;0.20;62.70;;;3.89;42.78;98300.38;5073516;28;20053;-41
2023/02/28 07:31:16;;;;;;;8.07;5.27;;;0.30;62.80;;;3.90;42.46;98301.22;5055969;28;20500;-42
2023/02/28 07:33:44;;;;;;;9.27;5.50;;;0.30;62.60;;;3.92;42.47;98294.91;5072991;28;20045;-41
2023/02/28 07:36:16;;;;;;;7.37;4.67;;;0.30;62.70;;;3.97;42.57;98296.38;5055282;28;20060;-40
2023/02/28 07:38:49;;;;;;;10.30;4.70;;;0.40;62.30;;;4.00;42.27;98304.91;5073338;28;20040;-44
2023/02/28 07:41:22;;;;;;;9.13;4.90;;;0.40;61.90;;;3.99;42.27;98295.31;5073187;28;20049;-41
2023/02/28 07:43:49;;;;;;;7.00;5.10;;;0.40;61.90;;;4.00;42.16;98299.66;5046720;28;20283;-42
2023/02/28 07:46:21;;;;;;;8.03;5.10;;;0.40;61.70;;;4.04;41.96;98305.56;5054223;28;20044;-44
2023/02/28 07:48:48;;;;;;;10.43;4.90;;;0.50;62.20;;;4.06;42.46;98309.78;5072781;28;20048;-42
2023/02/28 07:51:16;;;;;;;9.67;5.37;;;0.50;61.60;;;4.06;42.44;98303.66;5068276;28;20607;-42
2023/02/28 07:53:44;;;;;;;6.20;4.53;;;0.50;61.60;;;4.07;42.21;98295.66;5073184;28;20059;-41
2023/02/28 07:56:11;;;;;;;12.17;6.10;;;0.50;61.60;;;4.04;42.29;98303.75;5072756;28;20048;-41
2023/02/28 07:58:39;;;;;;;8.50;4.83;;;0.50;61.20;;;4.06;42.48;98301.88;5072944;28;20045;-41
2023/02/28 08:01:09;;;;;;;8.07;5.00;;;0.50;61.70;;;4.12;42.12;98301.44;5073263;28;20048;-41
2023/02/28 08:03:38;;;;;;;8.50;5.20;;;0.60;60.90;;;4.15;42.23;98310.94;5073195;28;20048;-42
2023/02/28 08:06:14;;;;;;;8.97;5.00;;;0.60;60.80;;;4.15;42.08;98308.31;5072646;28;20048;-42
2023/02/28 08:08:42;;;;;;;10.53;5.63;;;0.60;61.20;;;4.19;41.83;98309.78;5039325;28;20048;-41
2023/02/28 08:11:09;;;;;;;9.27;5.50;;;0.60;61.00;;;4.21;41.77;98305.25;5072894;28;20036;-41
2023/02/28 08:13:37;;;;;;;9.27;5.53;;;0.60;61.20;;;4.25;41.76;98306.72;5072677;28;20048;-42
2023/02/28 08:16:05;;;;;;;12.40;5.57;;;0.60;61.00;;;4.25;42.23;98311.16;5072070;28;20040;-41
2023/02/28 08:18:33;;;;;;;9.00;5.20;;;0.60;61.10;;;4.29;41.99;98312.63;5072010;28;20415;-43
2023/02/28 08:21:07;;;;;;;8.13;5.37;;;0.60;61.00;;;4.32;41.60;98318.53;5072165;28;20535;-41
2023/02/28 08:23:35;;;;;;;8.97;5.53;;;0.70;61.20;;;4.37;41.58;98312.09;5072505;28;20052;-42
2023/02/28 08:26:04;;;;;;;6.90;4.73;;;0.70;61.50;;;4.36;41.65;98313.88;5072056;28;20051;-41
2023/02/28 08:28:31;;;;;;;8.13;5.63;;;0.70;61.20;;;4.38;41.70;98324.31;5072435;28;20052;-42
2023/02/28 08:30:59;;;;;;;13.77;7.40;;;0.70;61.30;;;4.37;41.42;98320.03;5072322;28;20032;-41
2023/02/28 08:33:27;;;;;;;14.43;7.60;;;0.70;62.30;;;4.36;41.75;98321.78;5072286;28;20075;-41
2023/02/28 08:35:56;;;;;;;17.40;8.43;;;0.60;61.50;;;4.39;41.95;98312.84;5072333;28;20048;-41
2023/02/28 08:38:24;;;;;;;11.33;6.53;;;0.70;61.10;;;4.38;41.59;98322.56;5071914;28;20052;-41
2023/02/28 08:41:03;;;;;;;10.53;6.50;;;0.80;60.50;;;4.36;41.69;98326.22;5072083;28;20039;-41
2023/02/28 08:43:31;;;;;;;10.50;6.60;;;0.90;60.50;;;4.41;42.03;98321.50;5072256;28;20041;-41
2023/02/28 08:45:59;;;;;;;10.03;5.60;;;0.90;60.70;;;4.46;41.86;98322.00;5071820;28;20044;-41
2023/02/28 08:48:29;;;;;;;8.97;5.97;;;0.80;60.70;;;4.49;41.79;98322.63;5054422;28;20055;-41
2023/02/28 08:50:58;;;;;;;12.70;6.23;;;0.90;60.30;;;4.50;41.73;98329.59;5046832;28;20495;-42
2023/02/28 08:53:38;;;;;;;10.43;6.17;;;1.00;60.10;;;4.53;41.39;98328.53;5072017;28;20036;-42
2023/02/28 08:56:16;;;;;;;11.23;5.93;;;1.00;60.30;;;4.58;41.82;98328.25;5070905;28;20048;-41
2023/02/28 08:58:45;;;;;;;9.47;5.90;;;1.10;60.20;;;4.58;41.73;98334.34;5053782;28;20056;-41
2023/02/28 09:01:17;;;;;;;10.60;6.50;;;1.10;59.30;;;4.56;41.98;98333.63;5071657;28;20488;-42
2023/02/28 09:03:48;;;;;;;12.37;7.23;;;1.10;59.50;;;4.59;41.90;98328.13;5054137;28;20048;-42
2023/02/28 09:06:18;;;;;;;10.30;6.77;;;1.10;60.40;;;4.64;41.71;98333.09;5071207;28;20593;-41
2023/02/28 09:08:46;;;;;;;10.57;7.20;;;1.20;59.50;;;4.70;41.73;98325.56;5071249;28;20071;-42
2023/02/28 09:11:14;;;;;;;10.00;6.70;;;1.20;59.20;;;4.73;41.58;98337.72;5053071;28;20512;-41
2023/02/28 09:13:41;;;;;;;11.57;7.20;;;1.20;59.40;;;4.80;41.08;98331.03;5052697;28;20040;-41
2023/02/28 09:16:13;;;;;;;11.50;6.77;;;1.30;59.20;;;4.87;41.63;98328.84;5071192;28;20044;-42
2023/02/28 09:18:41;;;;;;;10.10;6.73;;;1.30;60.10;;;4.93;41.14;98325.75;5071146;28;20041;-43
2023/02/28 09:21:14;;;;;;;9.87;6.37;;;1.40;59.20;;;4.99;41.33;98322.66;5053341;28;20053;-41
2023/02/28 09:23:43;;;;;;;11.47;6.77;;;1.40;59.20;;;5.02;41.42;98330.38;5054007;28;20041;-42
2023/02/28 09:26:26;;;;;;;12.63;6.90;;;1.50;58.80;;;5.04;41.67;98324.97;5053395;28;20401;-42
2023/02/28 09:29:06;;;;;;;12.45;6.85;;;1.50;58.80;;;5.15;40.88;98332.97;5064623;28;20049;-42
2023/02/28 09:31:34;;;;;;;10.20;7.27;;;1.60;58.70;;;5.19;41.17;98336.22;5053683;28;20389;-43
2023/02/28 09:34:01;;;;;;;13.03;7.07;;;1.60;58.80;;;5.23;40.85;98340.34;5071295;28;20048;-41
2023/02/28 09:36:29;;;;;;;14.17;7.70;;;1.60;58.60;;;5.26;40.84;98333.03;5070710;28;20051;-41
2023/02/28 09:39:14;;;;;;;11.63;7.93;;;1.60;58.30;;;5.30;40.71;98331.84;5064954;28;20049;-41
2023/02/28 09:41:49;;;;;;;11.43;7.03;;;1.70;58.20;;;5.33;40.67;98336.06;5071007;28;20051;-41
2023/02/28 09:44:31;;;;;;;14.00;7.60;;;1.80;57.90;;;5.38;40.02;98344.50;5070929;28;20049;-43
2023/02/28 09:47:14;;;;;;;10.57;7.70;;;1.90;57.20;;;5.40;40.97;98345.25;5063228;28;20438;-41
2023/02/28 09:49:46;;;;;;;9.73;6.17;;;1.90;57.20;;;5.48;40.86;98342.88;5070871;28;20059;-43
2023/02/28 09:52:19;;;;;;;11.70;6.40;;;1.90;57.00;;;5.55;41.23;98342.44;5071070;28;20055;-42
2023/02/28 09:54:47;;;;;;;12.77;6.60;;;1.90;57.30;;;5.58;40.48;98340.41;5052211;28;20396;-45
2023/02/28 09:57:41;;;;;;;10.57;7.00;;;1.90;57.20;;;5.58;40.42;98344.84;5071078;28;20051;-41
2023/02/28 10:00:22;;;;;;;10.85;7.70;;;2.00;56.80;;;5.64;40.54;98341.75;5047377;28;20076;-43
2023/02/28 10:03:23;;;;;;;11.20;5.90;;;2.10;56.80;;;5.65;40.35;98348.75;5053969;28;20048;-42
2023/02/28 10:09:13;;;;;;;10.97;7.37;;;2.10;56.70;;;5.75;40.48;98341.81;5070466;28;20047;-41
2023/02/28 10:11:42;;;;;;;9.40;6.63;;;2.20;55.90;;;5.76;40.02;98346.16;5070776;28;20427;-42
2023/02/28 10:14:20;;;;;;;11.30;7.43;;;2.10;56.30;;;5.74;40.29;98348.06;5052438;28;20048;-41
2023/02/28 10:17:01;;;;;;;13.17;7.37;;;2.10;56.00;;;5.75;40.08;98339.16;5052308;28;20040;-43
2023/02/28 10:19:40;;;;;;;16.63;8.17;;;2.10;56.10;;;5.81;39.65;98351.91;5053727;28;20512;-42
2023/02/28 10:22:50;;;;;;;12.60;7.93;;;2.20;56.40;;;5.83;39.94;98352.66;5046180;28;20393;-42
2023/02/28 10:25:29;;;;;;;13.10;7.80;;;2.20;56.00;;;5.88;40.03;98353.16;5049804;28;20056;-42
2023/02/28 10:28:07;;;;;;;14.33;9.03;;;2.30;55.90;;;5.90;39.20;98360.97;5070540;28;20032;-41
2023/02/28 10:30:38;;;;;;;12.47;7.87;;;2.30;55.90;;;5.93;39.78;98366.00;5070134;28;20432;-42
2023/02/28 10:33:18;;;;;;;12.83;7.63;;;2.30;56.00;;;5.97;39.87;98370.16;5034554;28;20053;-44
2023/02/28 10:35:45;;;;;;;13.90;8.30;;;2.40;55.30;;;6.02;39.79;98368.00;5053953;28;20049;-41
2023/02/28 10:38:22;;;;;;;11.53;7.10;;;2.40;55.50;;;6.08;38.78;98369.34;5051706;28;20527;-43
2023/02/28 10:40:51;;;;;;;11.67;7.17;;;2.50;55.10;;;6.11;39.04;98374.41;5053453;28;20499;-42
2023/02/28 10:43:22;;;;;;;9.90;6.13;;;2.50;54.70;;;6.07;39.48;98371.16;5053547;28;20500;-41
2023/02/28 10:46:10;;;;;;;10.37;7.73;;;2.50;55.50;;;6.13;39.10;98361.06;5070641;28;20392;-41
2023/02/28 10:48:49;;;;;;;13.43;7.13;;;2.50;54.60;;;6.24;38.95;98361.09;5057643;28;20072;-42
2023/02/28 10:51:22;;;;;;;13.93;7.27;;;2.60;54.80;;;6.28;38.90;98360.78;5068223;28;20045;-42
2023/02/28 10:53:52;;;;;;;11.73;7.37;;;2.70;55.20;;;6.35;39.54;98361.13;5053039;28;20061;-41
2023/02/28 10:56:29;;;;;;;9.57;6.90;;;2.70;55.20;;;6.37;38.61;98356.56;5070851;28;20040;-43